createdAt,value
2019-02-05T00:01:03.567Z,18.80
2019-02-05T00:03:29.300Z,20.25
2019-02-05T00:05:55.074Z,18.27
2019-02-05T00:08:20.927Z,19.63
2019-02-05T00:10:46.802Z,18.00
2019-02-05T00:13:14.479Z,17.67
2019-02-05T00:15:40.250Z,19.63
2019-02-05T00:18:06.020Z,18.47
2019-02-05T00:20:31.773Z,17.40
2019-02-05T00:22:57.546Z,18.23
2019-02-05T00:25:23.301Z,17.67
2019-02-05T00:27:49.085Z,18.27
2019-02-05T00:33:41.914Z,18.98
2019-02-05T00:36:09.585Z,18.07
2019-02-05T00:38:35.340Z,17.40
2019-02-05T00:41:01.118Z,18.43
2019-02-05T00:43:26.886Z,17.90
2019-02-05T00:45:52.636Z,15.87
2019-02-05T00:48:18.436Z,17.17
2019-02-05T00:50:44.300Z,16.83
2019-02-05T00:53:30.007Z,17.80
2019-02-05T00:55:55.761Z,17.48
2019-02-05T00:58:21.529Z,16.63
2019-02-05T01:00:47.290Z,16.93
2019-02-05T01:03:13.155Z,18.20
2019-02-05T01:05:38.928Z,18.67
2019-02-05T01:08:04.793Z,19.63
2019-02-05T01:10:30.567Z,18.47
2019-02-05T01:12:56.450Z,18.13
2019-02-05T01:16:03.917Z,19.07
2019-02-05T01:18:29.702Z,16.80
2019-02-05T01:20:57.377Z,16.32
2019-02-05T01:23:23.146Z,16.13
2019-02-05T01:26:08.800Z,18.60
2019-02-05T01:28:34.569Z,16.50
2019-02-05T01:31:00.324Z,15.50
2019-02-05T01:33:26.290Z,17.30
2019-02-05T01:35:52.039Z,17.03
2019-02-05T01:38:17.809Z,16.57
2019-02-05T01:40:43.600Z,17.77
2019-02-05T01:43:09.390Z,15.60
2019-02-05T01:45:35.165Z,15.97
2019-02-05T01:48:00.935Z,15.67
2019-02-05T01:50:26.794Z,15.97
2019-02-05T01:52:52.666Z,16.60
2019-02-05T01:55:20.420Z,15.45
2019-02-05T01:57:46.216Z,16.23
2019-02-05T02:00:53.651Z,17.23
2019-02-05T02:03:19.816Z,16.62
2019-02-05T02:05:45.574Z,16.60
2019-02-05T02:08:11.439Z,18.20
2019-02-05T02:10:37.212Z,17.33
2019-02-05T02:13:44.661Z,17.60
2019-02-05T02:16:10.447Z,16.95
2019-02-05T02:18:36.217Z,16.07
2019-02-05T02:21:21.878Z,16.17
2019-02-05T02:23:47.645Z,17.57
2019-02-05T02:26:13.396Z,15.77
2019-02-05T02:28:41.070Z,17.65
2019-02-05T02:31:06.831Z,18.17
2019-02-05T02:33:32.596Z,16.53
2019-02-05T02:35:58.343Z,16.93
2019-02-05T02:38:24.134Z,16.87
2019-02-05T02:40:49.913Z,17.77
2019-02-05T02:43:15.667Z,18.93
2019-02-05T02:45:41.429Z,18.00
2019-02-05T02:48:09.102Z,18.00
2019-02-05T02:50:34.855Z,19.73
2019-02-05T02:53:00.626Z,19.97
2019-02-05T02:55:26.552Z,19.67
2019-02-05T02:57:52.301Z,20.37
2019-02-05T03:00:37.956Z,18.93
2019-02-05T03:03:04.033Z,19.98
2019-02-05T03:05:29.823Z,18.80
2019-02-05T03:07:55.589Z,22.00
2019-02-05T03:10:41.257Z,21.47
2019-02-05T03:13:07.017Z,21.68
2019-02-05T03:15:32.802Z,22.10
2019-02-05T03:17:58.555Z,22.00
2019-02-05T03:20:24.335Z,24.20
2019-02-05T03:22:51.987Z,23.12
2019-02-05T03:25:59.428Z,22.63
2019-02-05T03:28:25.191Z,24.30
2019-02-05T03:30:50.955Z,24.80
2019-02-05T03:33:18.618Z,23.12
2019-02-05T03:35:44.406Z,25.17
2019-02-05T03:38:10.259Z,25.40
2019-02-05T03:41:17.711Z,26.40
2019-02-05T03:43:43.779Z,27.70
2019-02-05T03:46:51.243Z,23.77
2019-02-05T03:49:17.014Z,26.65
2019-02-05T03:52:24.439Z,27.43
2019-02-05T03:55:31.914Z,27.25
2019-02-05T03:58:39.527Z,26.30
2019-02-05T04:01:47.199Z,26.12
2019-02-05T04:04:52.766Z,25.10
2019-02-05T04:08:00.191Z,27.30
2019-02-05T04:11:25.628Z,25.85
2019-02-05T04:14:51.093Z,29.18
2019-02-05T04:17:58.537Z,29.63
2019-02-05T04:21:06.082Z,27.93
2019-02-05T04:24:13.525Z,30.25
2019-02-05T04:30:32.473Z,29.10
2019-02-05T04:36:51.935Z,29.67
2019-02-05T04:40:17.361Z,28.07
2019-02-05T04:43:24.795Z,27.93
2019-02-05T04:46:32.562Z,30.48
2019-02-05T04:53:25.053Z,30.95
2019-02-05T04:56:32.489Z,32.45
2019-02-05T04:59:38.029Z,30.55
2019-02-05T05:03:03.430Z,31.10
2019-02-05T05:06:09.271Z,32.00
2019-02-05T05:12:02.291Z,35.23
2019-02-05T05:14:28.052Z,34.40
2019-02-05T05:16:53.836Z,35.57
2019-02-05T05:20:03.167Z,35.55
2019-02-05T05:22:28.933Z,37.55
2019-02-05T05:24:54.781Z,34.97
2019-02-05T05:30:36.452Z,37.60
2019-02-05T05:33:02.222Z,35.80
2019-02-05T05:35:40.634Z,38.05
2019-02-05T05:37:57.543Z,36.68
2019-02-05T05:40:23.300Z,34.80
2019-02-05T05:42:49.062Z,40.83
2019-02-05T05:45:14.914Z,37.43
2019-02-05T05:47:40.769Z,37.40
2019-02-05T05:53:33.608Z,38.13
2019-02-05T05:55:59.351Z,37.10
2019-02-05T05:58:25.111Z,42.73
2019-02-05T06:00:52.885Z,36.17
2019-02-05T06:03:18.632Z,36.30
2019-02-05T06:05:44.390Z,38.17
2019-02-05T06:08:51.829Z,36.63
2019-02-05T06:11:17.883Z,35.65
2019-02-05T06:13:43.659Z,39.73
2019-02-05T06:16:22.734Z,37.80
2019-02-05T06:18:48.517Z,40.15
2019-02-05T06:21:14.268Z,43.90
2019-02-05T06:23:40.030Z,40.47
2019-02-05T06:26:05.783Z,45.93
2019-02-05T06:28:34.629Z,44.17
2019-02-05T06:30:59.212Z,42.58
2019-02-05T06:33:24.984Z,40.30
2019-02-05T06:35:50.743Z,41.23
2019-02-05T06:38:16.494Z,46.57
2019-02-05T06:40:42.252Z,42.23
2019-02-05T06:43:07.999Z,42.00
2019-02-05T06:45:33.768Z,41.77
2019-02-05T06:47:59.518Z,41.73
2019-02-05T06:50:25.412Z,41.77
2019-02-05T06:52:52.937Z,40.80
2019-02-05T06:55:18.715Z,39.57
2019-02-05T06:57:44.461Z,46.30
2019-02-05T07:03:23.592Z,47.62
2019-02-05T07:05:49.349Z,43.90
2019-02-05T07:08:15.101Z,44.93
2019-02-05T07:10:40.882Z,45.10
2019-02-05T07:13:06.630Z,47.47
2019-02-05T07:15:32.405Z,43.97
2019-02-05T07:17:58.149Z,42.47
2019-02-05T07:20:23.915Z,40.23
2019-02-05T07:22:51.574Z,46.05
2019-02-05T07:28:30.451Z,41.42
2019-02-05T07:30:58.114Z,41.65
2019-02-05T07:33:23.856Z,37.57
2019-02-05T07:35:49.623Z,38.17
2019-02-05T07:38:15.371Z,38.00
2019-02-05T07:40:41.139Z,40.07
2019-02-05T07:43:06.890Z,39.70
2019-02-05T07:45:32.746Z,35.33
2019-02-05T07:47:58.498Z,36.63
2019-02-05T07:51:05.939Z,42.13
2019-02-05T07:53:33.291Z,38.80
2019-02-05T07:55:59.367Z,40.15
2019-02-05T07:58:25.117Z,38.53
2019-02-05T08:00:50.888Z,39.13
2019-02-05T08:03:16.637Z,37.30
2019-02-05T08:05:42.409Z,43.40
2019-02-05T08:08:51.748Z,40.52
2019-02-05T08:11:17.516Z,37.80
2019-02-05T08:13:43.268Z,37.97
2019-02-05T08:16:50.736Z,40.30
2019-02-05T08:19:16.478Z,40.90
2019-02-05T08:21:42.254Z,43.93
2019-02-05T08:24:07.999Z,44.47
2019-02-05T08:26:33.761Z,39.87
2019-02-05T08:28:59.515Z,37.23
2019-02-05T08:31:27.189Z,43.13
2019-02-05T08:33:52.946Z,42.07
2019-02-05T08:36:18.714Z,43.43
2019-02-05T08:38:44.466Z,47.77
2019-02-05T08:41:10.225Z,48.77
2019-02-05T08:43:35.979Z,45.27
2019-02-05T08:46:01.828Z,44.13
2019-02-05T08:48:27.595Z,39.33
2019-02-05T08:50:53.341Z,46.20
2019-02-05T08:53:19.127Z,42.27
2019-02-05T08:55:46.789Z,43.20
2019-02-05T08:58:54.242Z,43.10
2019-02-05T09:04:13.936Z,51.23
2019-02-05T09:06:39.702Z,47.03
2019-02-05T09:09:47.133Z,50.47
2019-02-05T09:12:12.904Z,55.15
2019-02-05T09:14:38.665Z,53.67
2019-02-05T09:17:04.450Z,53.10
2019-02-05T09:19:30.197Z,49.77
2019-02-05T09:21:55.964Z,49.93
2019-02-05T09:24:21.715Z,59.43
2019-02-05T09:26:47.502Z,53.47
2019-02-05T09:29:13.253Z,53.10
2019-02-05T09:31:40.910Z,58.27
2019-02-05T09:34:06.679Z,54.53
2019-02-05T09:36:32.427Z,46.30
2019-02-05T09:38:58.183Z,50.27
2019-02-05T09:41:23.946Z,51.47
2019-02-05T09:43:49.709Z,52.53
2019-02-05T09:46:15.461Z,50.13
2019-02-05T09:48:41.227Z,51.47
2019-02-05T09:51:06.979Z,47.37
2019-02-05T09:53:32.750Z,49.77
2019-02-05T09:56:00.414Z,48.60
2019-02-05T09:58:26.180Z,48.03
2019-02-05T10:00:51.935Z,47.33
2019-02-05T10:03:17.699Z,52.60
2019-02-05T10:05:43.456Z,47.17
2019-02-05T10:08:09.210Z,44.50
2019-02-05T10:10:34.990Z,44.67
2019-02-05T10:13:42.413Z,41.40
2019-02-05T10:16:08.182Z,41.87
2019-02-05T10:18:33.949Z,40.03
2019-02-05T10:20:59.700Z,42.97
2019-02-05T10:23:25.457Z,39.90
2019-02-05T10:25:51.199Z,38.60
2019-02-05T10:28:16.992Z,35.47
2019-02-05T10:30:44.651Z,39.63
2019-02-05T10:33:10.610Z,35.27
2019-02-05T10:35:36.378Z,36.37
2019-02-05T10:38:43.810Z,37.00
2019-02-05T10:41:09.662Z,40.40
2019-02-05T10:43:35.409Z,39.27
2019-02-05T10:46:01.166Z,33.80
2019-02-05T10:48:26.917Z,32.10
2019-02-05T10:50:52.677Z,33.63
2019-02-05T10:53:18.434Z,31.50
2019-02-05T10:55:44.199Z,39.30
2019-02-05T10:58:09.957Z,39.77
2019-02-05T11:00:35.733Z,32.07
2019-02-05T11:03:23.271Z,35.00
2019-02-05T11:05:49.043Z,32.77
2019-02-05T11:08:14.799Z,35.13
2019-02-05T11:10:40.562Z,31.43
2019-02-05T11:13:06.407Z,30.13
2019-02-05T11:18:26.014Z,26.60
2019-02-05T11:20:51.778Z,30.73
2019-02-05T11:23:17.536Z,26.77
2019-02-05T11:25:43.303Z,27.93
2019-02-05T11:28:09.062Z,26.03
2019-02-05T11:33:48.882Z,15.13
2019-02-05T11:36:14.643Z,17.17
2019-02-05T11:38:40.402Z,15.07
2019-02-05T11:41:06.160Z,14.57
2019-02-05T11:43:33.815Z,13.57
2019-02-05T11:45:59.579Z,15.53
2019-02-05T11:48:25.326Z,14.63
2019-02-05T11:50:51.088Z,13.13
2019-02-05T11:53:16.838Z,15.97
2019-02-05T11:55:42.685Z,16.63
2019-02-05T11:58:08.452Z,17.90
2019-02-05T12:00:54.231Z,19.00
2019-02-05T12:03:19.980Z,19.27
2019-02-05T12:05:45.830Z,25.63
2019-02-05T12:08:11.590Z,26.93
2019-02-05T12:10:37.359Z,28.30
2019-02-05T12:13:03.132Z,28.47
2019-02-05T12:15:28.902Z,24.83
2019-02-05T12:17:54.665Z,24.93
2019-02-05T12:20:20.427Z,23.03
2019-02-05T12:23:27.873Z,25.80
2019-02-05T12:25:53.623Z,27.70
2019-02-05T12:28:19.386Z,24.13
2019-02-05T12:30:45.742Z,22.60
2019-02-05T12:33:13.007Z,23.23
2019-02-05T12:35:38.781Z,26.27
2019-02-05T12:38:06.524Z,23.37
2019-02-05T12:40:32.479Z,21.53
2019-02-05T12:42:58.233Z,22.93
2019-02-05T12:46:05.654Z,21.20
2019-02-05T12:48:31.427Z,24.00
2019-02-05T12:50:57.178Z,23.00
2019-02-05T12:53:22.943Z,20.77
2019-02-05T12:55:48.695Z,21.17
2019-02-05T12:58:14.456Z,23.43
2019-02-05T13:01:01.299Z,19.00
2019-02-05T13:03:27.758Z,22.90
2019-02-05T13:05:53.512Z,20.67
2019-02-05T13:08:19.277Z,27.97
2019-02-05T13:14:12.104Z,24.57
2019-02-05T13:16:37.875Z,21.73
2019-02-05T13:19:03.740Z,21.47
2019-02-05T13:21:29.499Z,21.30
2019-02-05T13:23:55.378Z,19.10
2019-02-05T13:26:22.915Z,21.40
2019-02-05T13:28:48.679Z,21.40
2019-02-05T13:31:14.437Z,18.90
2019-02-05T13:33:40.197Z,23.33
2019-02-05T13:36:47.628Z,20.07
2019-02-05T13:39:13.385Z,18.47
2019-02-05T13:41:39.145Z,21.57
2019-02-05T13:44:04.979Z,22.47
2019-02-05T13:46:30.862Z,22.43
2019-02-05T13:48:56.617Z,18.97
2019-02-05T13:51:22.365Z,24.73
2019-02-05T13:53:48.124Z,20.33
2019-02-05T13:56:14.071Z,23.73
2019-02-05T13:58:39.832Z,24.27
2019-02-05T14:01:05.586Z,18.93
2019-02-05T14:03:31.348Z,20.07
2019-02-05T14:05:57.113Z,17.57
2019-02-05T14:08:22.882Z,19.00
2019-02-05T14:10:48.643Z,19.93
2019-02-05T14:13:14.586Z,20.90
2019-02-05T14:16:22.137Z,23.67
2019-02-05T14:18:54.930Z,18.80
2019-02-05T14:21:15.565Z,21.70
2019-02-05T14:23:41.326Z,22.30
2019-02-05T14:26:08.976Z,20.20
2019-02-05T14:28:34.737Z,24.07
2019-02-05T14:31:00.522Z,21.93
2019-02-05T14:33:26.238Z,23.73
2019-02-05T14:35:52.008Z,20.60
2019-02-05T14:38:17.747Z,17.90
2019-02-05T14:40:43.514Z,18.63
2019-02-05T14:43:09.268Z,22.37
2019-02-05T14:45:35.230Z,20.77
2019-02-05T14:48:00.992Z,22.43
2019-02-05T14:50:46.642Z,24.63
2019-02-05T14:53:12.488Z,22.20
2019-02-05T14:55:38.253Z,17.27
2019-02-05T14:58:45.696Z,21.10
2019-02-05T15:01:11.455Z,16.17
2019-02-05T15:03:37.214Z,22.63
2019-02-05T15:06:03.080Z,15.50
2019-02-05T15:08:28.834Z,20.20
2019-02-05T15:10:56.497Z,18.63
2019-02-05T15:13:22.252Z,17.67
2019-02-05T15:15:48.045Z,19.37
2019-02-05T15:18:13.988Z,17.00
2019-02-05T15:21:21.442Z,17.73
2019-02-05T15:23:47.193Z,17.83
2019-02-05T15:26:12.957Z,13.53
2019-02-05T15:28:38.712Z,13.73
2019-02-05T15:31:04.477Z,15.30
2019-02-05T15:33:50.113Z,17.10
2019-02-05T15:38:49.513Z,15.17
2019-02-05T15:41:15.283Z,16.67
2019-02-05T15:43:41.034Z,16.97
2019-02-05T15:46:06.798Z,13.27
2019-02-05T15:48:32.549Z,15.53
2019-02-05T15:50:58.315Z,14.00
2019-02-05T15:53:25.974Z,17.27
2019-02-05T15:55:51.745Z,16.00
2019-02-05T15:58:17.497Z,17.47
2019-02-05T16:00:43.251Z,18.27
2019-02-05T16:03:09.114Z,16.30
2019-02-05T16:08:28.608Z,15.53
2019-02-05T16:10:54.366Z,18.90
2019-02-05T16:13:20.257Z,15.97
2019-02-05T16:15:46.005Z,17.70
2019-02-05T16:18:11.778Z,14.90
2019-02-05T16:20:37.524Z,16.20
2019-02-05T16:23:03.487Z,15.87
2019-02-05T16:25:29.235Z,17.37
2019-02-05T16:27:55.193Z,17.30
2019-02-05T16:30:40.824Z,15.07
2019-02-05T16:33:06.583Z,18.40
2019-02-05T16:35:32.345Z,20.73
2019-02-05T16:37:58.118Z,17.63
2019-02-05T16:40:43.749Z,19.77
2019-02-05T16:43:09.520Z,19.07
2019-02-05T16:45:35.330Z,21.20
2019-02-05T16:48:01.234Z,17.67
2019-02-05T16:51:08.656Z,16.13
2019-02-05T16:53:34.420Z,15.90
2019-02-05T16:56:00.171Z,16.83
2019-02-05T16:58:25.923Z,17.50
2019-02-05T17:00:51.677Z,16.67
2019-02-05T17:03:17.430Z,16.73
2019-02-05T17:05:43.255Z,20.13
2019-02-05T17:08:10.889Z,16.93
2019-02-05T17:10:36.733Z,18.43
2019-02-05T17:13:44.172Z,16.40
2019-02-05T17:16:10.249Z,17.53
2019-02-05T17:18:36.014Z,16.37
2019-02-05T17:21:01.872Z,16.80
2019-02-05T17:23:27.643Z,18.83
2019-02-05T17:25:53.419Z,18.97
2019-02-05T17:28:19.199Z,18.00
2019-02-05T17:30:47.191Z,19.93
2019-02-05T17:33:12.944Z,17.13
2019-02-05T17:35:38.794Z,17.83
2019-02-05T17:38:06.473Z,18.73
2019-02-05T17:40:32.227Z,20.20
2019-02-05T17:42:57.983Z,17.10
2019-02-05T17:45:31.535Z,21.73
2019-02-05T17:47:58.691Z,21.07
2019-02-05T17:50:24.461Z,17.93
2019-02-05T17:52:50.209Z,19.50
2019-02-05T17:55:17.279Z,16.93
2019-02-05T17:57:43.031Z,19.43
2019-02-05T18:00:50.458Z,20.03
2019-02-05T18:03:16.569Z,20.60
2019-02-05T18:05:42.322Z,17.23
2019-02-05T18:08:08.073Z,23.00
2019-02-05T18:10:33.828Z,18.47
2019-02-05T18:12:59.774Z,18.23
2019-02-05T18:15:45.433Z,20.40
2019-02-05T18:18:11.595Z,23.62
2019-02-05T18:20:37.366Z,21.63
2019-02-05T18:23:44.800Z,24.40
2019-02-05T18:26:10.568Z,25.62
2019-02-05T18:28:38.248Z,21.55
2019-02-05T18:31:04.313Z,24.97
2019-02-05T18:33:30.086Z,27.85
2019-02-05T18:35:55.939Z,24.37
2019-02-05T18:38:21.711Z,29.20
2019-02-05T18:40:47.486Z,24.97
2019-02-05T18:43:13.340Z,26.70
2019-02-05T18:45:39.116Z,26.50
2019-02-05T18:48:06.771Z,28.40
2019-02-05T18:50:32.543Z,32.27
2019-02-05T18:52:58.306Z,31.80
2019-02-05T18:55:44.554Z,30.73
2019-02-05T18:58:10.315Z,34.38
2019-02-05T19:00:55.966Z,30.03
2019-02-05T19:03:21.722Z,26.73
2019-02-05T19:05:47.497Z,28.57
2019-02-05T19:08:16.331Z,24.73
2019-02-05T19:11:02.691Z,34.10
2019-02-05T19:13:28.656Z,30.67
2019-02-05T19:15:54.439Z,28.70
2019-02-05T19:18:20.322Z,26.83
2019-02-05T19:20:46.030Z,32.90
2019-02-05T19:23:11.792Z,28.90
2019-02-05T19:25:57.561Z,30.77
2019-02-05T19:31:30.958Z,29.00
2019-02-05T19:33:56.715Z,30.87
2019-02-05T19:36:24.382Z,30.13
2019-02-05T19:38:50.146Z,27.67
2019-02-05T19:41:15.915Z,31.83
2019-02-05T19:43:41.667Z,34.23
2019-02-05T19:46:27.331Z,34.33
2019-02-05T19:51:40.391Z,29.43
2019-02-05T19:54:08.069Z,29.00
2019-02-05T19:56:38.095Z,26.73
2019-02-05T19:59:01.495Z,30.70
2019-02-05T20:01:27.274Z,31.23
2019-02-05T20:03:53.025Z,35.40
2019-02-05T20:06:18.794Z,37.47
2019-02-05T20:08:44.546Z,36.47
2019-02-05T20:11:10.314Z,39.37
2019-02-05T20:13:40.264Z,39.53
2019-02-05T20:16:03.858Z,34.23
2019-02-05T20:18:29.746Z,35.77
2019-02-05T20:20:55.889Z,46.20
2019-02-05T20:23:21.813Z,46.87
2019-02-05T20:26:29.961Z,50.23
2019-02-05T20:28:55.740Z,43.53
2019-02-05T20:33:54.206Z,41.33
2019-02-05T20:36:19.957Z,38.03
2019-02-05T20:38:45.717Z,44.17
2019-02-05T20:41:11.494Z,43.70
2019-02-05T20:43:39.461Z,43.97
2019-02-05T20:46:47.080Z,45.53
2019-02-05T20:49:13.210Z,45.60
2019-02-05T20:51:39.017Z,52.33
2019-02-05T20:54:06.809Z,47.87
2019-02-05T20:56:33.061Z,53.17
2019-02-05T20:58:58.838Z,50.97
2019-02-05T21:01:44.491Z,53.00
2019-02-05T21:04:10.465Z,51.63
2019-02-05T21:06:36.634Z,56.93
2019-02-05T21:09:46.174Z,56.10
2019-02-05T21:12:12.217Z,52.47
2019-02-05T21:14:37.989Z,55.13
2019-02-05T21:17:04.136Z,58.20
2019-02-05T21:19:31.894Z,63.00
2019-02-05T21:21:57.654Z,59.37
2019-02-05T21:24:23.420Z,60.47
2019-02-05T21:26:49.171Z,59.33
2019-02-05T21:29:14.939Z,60.87
2019-02-05T21:31:40.696Z,65.87
2019-02-05T21:34:15.441Z,61.97
2019-02-05T21:36:34.137Z,65.73
2019-02-05T21:38:59.911Z,66.30
2019-02-05T21:41:27.565Z,64.32
2019-02-05T21:43:53.332Z,63.30
2019-02-05T21:46:19.237Z,68.23
2019-02-05T21:48:44.994Z,71.27
2019-02-05T21:51:10.742Z,71.13
2019-02-05T21:53:36.511Z,67.97
2019-02-05T21:56:02.358Z,72.93
2019-02-05T21:58:28.107Z,80.30
2019-02-05T22:00:53.874Z,73.30
2019-02-05T22:03:21.549Z,70.03
2019-02-05T22:05:47.326Z,75.80
2019-02-05T22:08:13.204Z,75.00
2019-02-05T22:10:38.934Z,77.33
2019-02-05T22:13:07.168Z,76.00
2019-02-05T22:15:32.381Z,74.92
2019-02-05T22:17:58.123Z,78.70
2019-02-05T22:21:05.572Z,85.53
2019-02-05T22:23:31.328Z,76.72
2019-02-05T22:25:57.096Z,80.03
2019-02-05T22:28:23.241Z,81.70
2019-02-05T22:31:02.457Z,90.10
2019-02-05T22:33:28.330Z,93.50
2019-02-05T22:38:29.830Z,92.00
2019-02-05T22:40:55.592Z,86.40
2019-02-05T22:43:21.344Z,83.80
2019-02-05T22:45:47.112Z,87.63
2019-02-05T22:48:12.881Z,89.83
2019-02-05T22:50:38.655Z,88.07
2019-02-05T22:53:24.300Z,93.83
2019-02-05T22:55:50.084Z,89.55
2019-02-05T22:58:15.833Z,86.77
2019-02-05T23:01:23.264Z,97.00
2019-02-05T23:04:30.720Z,97.42
2019-02-05T23:07:16.360Z,91.57
2019-02-05T23:10:23.807Z,90.30
2019-02-05T23:12:49.561Z,97.92
2019-02-05T23:15:57.034Z,101.43
2019-02-05T23:18:22.773Z,94.42
2019-02-05T23:21:30.234Z,95.33
2019-02-05T23:23:56.288Z,97.33
2019-02-05T23:26:23.981Z,92.67
2019-02-05T23:28:49.715Z,96.65
2019-02-05T23:31:15.479Z,104.73
2019-02-05T23:33:41.549Z,103.80
2019-02-05T23:36:08.904Z,107.78
2019-02-05T23:38:34.660Z,99.20
2019-02-05T23:41:00.426Z,90.07
2019-02-05T23:43:28.079Z,98.95
2019-02-05T23:46:01.444Z,100.17
2019-02-05T23:48:21.497Z,98.35
2019-02-05T23:50:47.266Z,95.57
2019-02-05T23:53:13.011Z,105.63
2019-02-05T23:55:38.768Z,105.70
2019-02-05T23:58:04.531Z,99.13
